Time;durP1;ratioP1;P1;durP2;ratioP2;P2;SDS_P1;SDS_P2;PMS_P1;PMS_P2;Temp;Humidity;BMP_temperature;BMP_pressure;BME280_temperature;BME280_humidity;BME280_pressure;Samples;Min_cycle;Max_cycle;Signal;HPM_P1;HPM_P2
2023/03/02 00:00:45;;;;;;;22.25;15.18;;;1.20;71.30;;;;;;4984951;28;20022;-84
2023/03/02 00:03:13;;;;;;;22.30;15.05;;;1.10;71.30;;;;;;4980204;28;20098;-86
2023/03/02 00:05:40;;;;;;;22.08;14.65;;;1.10;71.40;;;;;;4980178;28;20023;-84
2023/03/02 00:08:08;;;;;;;21.73;14.75;;;1.10;71.50;;;;;;4986673;28;20462;-86
2023/03/02 00:10:34;;;;;;;21.15;14.07;;;1.10;71.60;;;;;;4986463;28;20038;-85
2023/03/02 00:12:59;;;;;;;20.88;14.52;;;1.10;71.70;;;;;;4983060;28;20029;-85
2023/03/02 00:15:25;;;;;;;23.92;15.48;;;1.10;71.70;;;;;;4979675;28;20415;-84
2023/03/02 00:17:51;;;;;;;22.20;15.25;;;1.00;72.00;;;;;;4982157;28;20034;-81
2023/03/02 00:20:17;;;;;;;26.40;14.82;;;1.00;72.00;;;;;;4985649;28;20039;-79
2023/03/02 00:22:44;;;;;;;21.20;13.73;;;1.00;72.00;;;;;;4980866;28;20067;-84
2023/03/02 00:25:12;;;;;;;22.15;14.40;;;0.90;72.10;;;;;;4988809;28;20022;-81
2023/03/02 00:27:38;;;;;;;20.88;13.77;;;0.90;72.30;;;;;;4986786;28;20042;-82
2023/03/02 00:30:04;;;;;;;21.83;14.73;;;0.90;72.40;;;;;;4999661;28;20030;-82
2023/03/02 00:32:30;;;;;;;21.05;14.10;;;0.90;72.60;;;;;;4989203;28;20037;-81
2023/03/02 00:34:57;;;;;;;21.45;14.40;;;0.80;72.70;;;;;;4987207;28;20327;-83
2023/03/02 00:37:24;;;;;;;23.73;14.48;;;0.90;72.50;;;;;;4987372;28;20039;-83
2023/03/02 00:39:51;;;;;;;21.45;14.63;;;0.90;72.70;;;;;;4992056;28;20034;-83
2023/03/02 00:42:17;;;;;;;21.88;13.43;;;0.90;72.60;;;;;;4991777;28;20038;-83
2023/03/02 00:44:42;;;;;;;20.30;14.25;;;0.90;72.70;;;;;;5000207;28;20767;-85
2023/03/02 00:47:08;;;;;;;22.02;13.85;;;0.90;72.60;;;;;;5000766;28;20422;-85
2023/03/02 00:49:35;;;;;;;22.20;13.57;;;0.90;72.70;;;;;;5010211;28;20041;-83
2023/03/02 00:52:01;;;;;;;24.08;13.75;;;0.90;72.80;;;;;;5006818;28;20049;-84
2023/03/02 00:54:27;;;;;;;22.20;14.48;;;0.90;72.90;;;;;;5009760;28;20024;-83
2023/03/02 00:56:52;;;;;;;22.25;14.93;;;0.80;72.90;;;;;;4996212;28;20125;-84
2023/03/02 00:59:27;;;;;;;20.70;14.45;;;0.80;73.00;;;;;;5000314;28;20049;-82
2023/03/02 01:01:56;;;;;;;22.13;14.50;;;0.70;73.20;;;;;;5004715;28;20029;-81
2023/03/02 01:04:30;;;;;;;24.70;14.38;;;0.70;73.30;;;;;;4995549;28;20026;-80
2023/03/02 01:07:06;;;;;;;23.23;13.95;;;0.70;73.60;;;;;;4989715;28;20027;-83
2023/03/02 01:09:32;;;;;;;20.63;13.55;;;0.70;73.60;;;;;;4985481;28;20034;-77
2023/03/02 01:11:58;;;;;;;23.60;14.70;;;0.70;73.60;;;;;;4996993;28;20038;-84
2023/03/02 01:14:24;;;;;;;19.70;13.48;;;0.80;73.60;;;;;;4999893;28;20750;-82
2023/03/02 01:16:50;;;;;;;20.42;12.88;;;0.80;73.50;;;;;;5004901;28;20034;-81
2023/03/02 01:19:16;;;;;;;20.55;12.50;;;0.80;73.40;;;;;;5007130;28;20145;-82
2023/03/02 01:21:42;;;;;;;18.75;12.25;;;0.80;73.40;;;;;;5001875;28;20094;-80
2023/03/02 01:24:09;;;;;;;20.83;13.52;;;0.80;73.50;;;;;;4999891;28;20357;-80
2023/03/02 01:26:35;;;;;;;21.27;13.38;;;0.80;73.40;;;;;;5000133;28;20050;-85
2023/03/02 01:29:02;;;;;;;24.42;13.80;;;0.80;73.60;;;;;;4997542;28;20054;-79
2023/03/02 01:31:28;;;;;;;22.10;14.32;;;0.80;73.50;;;;;;5004430;28;20026;-80
2023/03/02 01:33:54;;;;;;;22.63;13.27;;;0.80;73.50;;;;;;5009810;28;20034;-84
2023/03/02 01:36:21;;;;;;;22.67;12.93;;;0.80;73.50;;;;;;5010119;28;20034;-84
2023/03/02 01:38:47;;;;;;;20.17;13.52;;;0.80;73.50;;;;;;5001643;28;20050;-78
2023/03/02 01:41:13;;;;;;;17.92;11.88;;;0.70;73.50;;;;;;5000794;28;20057;-84
2023/03/02 01:43:38;;;;;;;19.20;12.25;;;0.70;73.70;;;;;;5002162;28;20018;-83
2023/03/02 01:46:14;;;;;;;19.20;12.73;;;0.60;73.90;;;;;;5006146;28;20041;-82
2023/03/02 01:48:45;;;;;;;19.65;12.40;;;0.60;74.00;;;;;;5000130;28;20033;-82
2023/03/02 01:51:15;;;;;;;20.38;12.80;;;0.60;74.00;;;;;;4996338;28;20569;-82
2023/03/02 01:53:45;;;;;;;20.80;13.43;;;0.60;74.20;;;;;;5006143;28;20027;-84
2023/03/02 01:56:18;;;;;;;20.20;12.88;;;0.60;74.30;;;;;;4999299;28;20052;-82
2023/03/02 01:58:47;;;;;;;23.00;12.82;;;0.60;74.50;;;;;;5005983;28;20041;-81
2023/03/02 02:01:16;;;;;;;20.15;12.70;;;0.50;74.60;;;;;;5002263;28;20041;-84
2023/03/02 02:03:49;;;;;;;22.10;13.07;;;0.50;74.80;;;;;;5001309;28;20049;-81
2023/03/02 02:06:20;;;;;;;21.73;13.48;;;0.40;75.20;;;;;;5002723;28;20208;-83
2023/03/02 02:08:48;;;;;;;20.92;13.77;;;0.40;75.40;;;;;;5008425;28;20029;-84
2023/03/02 02:11:14;;;;;;;19.33;13.32;;;0.40;75.50;;;;;;5004555;28;20038;-84
2023/03/02 02:13:39;;;;;;;20.17;14.23;;;0.30;75.60;;;;;;4996524;28;20032;-84
2023/03/02 02:16:06;;;;;;;21.08;13.52;;;0.30;75.80;;;;;;4997383;28;20493;-84
2023/03/02 02:18:34;;;;;;;19.20;13.00;;;0.20;76.20;;;;;;5000714;28;20045;-85
2023/03/02 02:21:00;;;;;;;20.35;12.35;;;0.20;76.20;;;;;;5007385;28;20045;-82
2023/03/02 02:23:36;;;;;;;19.73;13.00;;;0.20;76.40;;;;;;4997751;28;20030;-82
2023/03/02 02:26:09;;;;;;;18.73;11.73;;;0.20;76.50;;;;;;5000277;28;20030;-84
2023/03/02 02:29:01;;;;;;;19.95;12.98;;;0.20;76.70;;;;;;5004631;28;20030;-83
2023/03/02 02:31:35;;;;;;;16.50;12.20;;;0.20;76.70;;;;;;5014003;28;20105;-80
2023/03/02 02:34:11;;;;;;;20.73;12.80;;;0.30;76.50;;;;;;5009521;28;20024;-84
2023/03/02 02:36:42;;;;;;;17.13;12.43;;;0.30;76.50;;;;;;5022129;28;20387;-78
2023/03/02 02:39:14;;;;;;;19.38;12.25;;;0.20;76.60;;;;;;5015253;28;20106;-82
2023/03/02 02:41:42;;;;;;;17.85;11.65;;;0.20;76.50;;;;;;5005833;28;20030;-85
2023/03/02 02:44:14;;;;;;;22.35;12.20;;;0.20;76.80;;;;;;5009580;28;20028;-78
2023/03/02 02:46:40;;;;;;;18.98;13.02;;;0.20;77.00;;;;;;5022381;28;20107;-78
2023/03/02 02:49:36;;;;;;;19.65;12.82;;;0.10;77.10;;;;;;5006247;28;20113;-84
2023/03/02 02:52:04;;;;;;;21.02;13.18;;;0.10;77.30;;;;;;4999852;28;20042;-85
2023/03/02 02:54:31;;;;;;;20.25;13.10;;;0.10;77.50;;;;;;5001884;28;20029;-82
2023/03/02 02:56:59;;;;;;;20.67;13.73;;;0.10;77.70;;;;;;5006931;28;20042;-83
2023/03/02 02:59:30;;;;;;;20.27;12.93;;;0.00;77.90;;;;;;5004799;28;20026;-84
2023/03/02 03:01:57;;;;;;;22.83;12.93;;;0.00;78.20;;;;;;5005447;28;20177;-83
2023/03/02 03:04:30;;;;;;;22.13;13.30;;;0.00;78.20;;;;;;5009081;28;20037;-84
2023/03/02 03:07:04;;;;;;;17.60;13.18;;;0.00;78.30;;;;;;5008786;28;20037;-82
2023/03/02 03:09:30;;;;;;;19.52;13.40;;;0.00;78.50;;;;;;5006482;28;20100;-83
2023/03/02 03:12:19;;;;;;;17.88;12.73;;;0.00;78.60;;;;;;5004988;28;20037;-83
2023/03/02 03:14:46;;;;;;;18.35;13.60;;;0.00;78.70;;;;;;5006744;28;20022;-84
2023/03/02 03:17:12;;;;;;;22.98;14.85;;;0.00;78.80;;;;;;4998649;28;20066;-84
2023/03/02 03:19:41;;;;;;;21.35;14.02;;;0.00;78.80;;;;;;5002362;28;20054;-82
2023/03/02 03:22:10;;;;;;;22.52;14.20;;;0.00;78.90;;;;;;5000477;28;20088;-79
2023/03/02 03:24:37;;;;;;;24.35;14.25;;;0.00;79.20;;;;;;5001683;28;20026;-85
2023/03/02 03:27:05;;;;;;;21.58;13.73;;;0.00;79.20;;;;;;5000604;28;20145;-80
2023/03/02 03:29:32;;;;;;;18.55;13.38;;;0.00;79.10;;;;;;5007587;28;20030;-83
2023/03/02 03:31:59;;;;;;;22.30;13.90;;;-3276.70;79.20;;;;;;5003544;28;20092;-83
2023/03/02 03:34:26;;;;;;;19.80;13.77;;;-3276.70;79.30;;;;;;5000918;28;20040;-85
2023/03/02 03:36:52;;;;;;;21.05;14.50;;;-3276.70;79.40;;;;;;4994995;28;20104;-78
2023/03/02 03:39:18;;;;;;;21.33;14.52;;;0.00;79.30;;;;;;4982343;28;20054;-85
2023/03/02 03:41:44;;;;;;;19.40;13.07;;;-3276.70;79.40;;;;;;5000705;28;20120;-83
2023/03/02 03:44:10;;;;;;;19.05;12.82;;;-3276.70;79.40;;;;;;5013041;28;20030;-80
2023/03/02 03:46:36;;;;;;;19.10;13.75;;;0.00;79.30;;;;;;5008949;28;20038;-84
2023/03/02 03:49:03;;;;;;;20.33;13.77;;;0.00;79.40;;;;;;5014609;28;20091;-84
2023/03/02 03:51:34;;;;;;;22.88;13.13;;;0.00;79.30;;;;;;5003592;28;21032;-85
2023/03/02 03:54:04;;;;;;;20.40;12.65;;;0.00;79.20;;;;;;5003057;28;20319;-85
2023/03/02 03:56:32;;;;;;;18.88;13.05;;;0.00;79.40;;;;;;5007801;28;20069;-85
2023/03/02 03:59:07;;;;;;;19.10;13.52;;;0.00;79.30;;;;;;5005620;28;20034;-79
2023/03/02 04:01:46;;;;;;;;;;;-3276.70;79.30;;;;;;5010924;28;20121;-85
2023/03/02 04:04:15;;;;;;;21.10;12.80;;;0.00;79.30;;;;;;5011932;28;20045;-85
2023/03/02 04:06:42;;;;;;;21.02;13.73;;;-3276.70;79.40;;;;;;5007432;28;20038;-84
2023/03/02 04:09:08;;;;;;;21.30;13.85;;;-3276.70;79.50;;;;;;5003459;28;20034;-83
2023/03/02 04:11:37;;;;;;;22.42;13.68;;;-3276.70;79.40;;;;;;5000130;28;20057;-85
2023/03/02 04:14:03;;;;;;;19.20;12.40;;;-3276.70;79.20;;;;;;5006367;28;20037;-77
2023/03/02 04:16:29;;;;;;;17.73;12.82;;;0.00;79.30;;;;;;5008486;28;20038;-84
2023/03/02 04:18:55;;;;;;;19.92;13.95;;;-3276.70;79.30;;;;;;5012873;28;20033;-85
2023/03/02 04:21:21;;;;;;;19.38;13.32;;;-3276.70;79.40;;;;;;5008590;28;20100;-86
2023/03/02 04:23:47;;;;;;;18.75;13.25;;;-3276.60;79.60;;;;;;5006650;28;20018;-84
2023/03/02 04:26:13;;;;;;;19.90;12.80;;;-3276.70;79.60;;;;;;5009606;28;20037;-83
2023/03/02 04:28:38;;;;;;;17.58;12.90;;;-3276.70;79.60;;;;;;5006610;28;20068;-81
2023/03/02 04:31:04;;;;;;;21.42;13.35;;;-3276.70;79.60;;;;;;5003465;28;20041;-86
2023/03/02 04:33:30;;;;;;;20.65;13.20;;;-3276.70;79.70;;;;;;5002817;28;20030;-83
2023/03/02 04:35:56;;;;;;;21.38;13.07;;;-3276.70;79.60;;;;;;5017614;28;20029;-82
2023/03/02 04:38:22;;;;;;;21.92;13.52;;;-3276.70;79.60;;;;;;5002183;28;20030;-77
2023/03/02 04:40:48;;;;;;;18.38;12.55;;;-3276.70;79.70;;;;;;5008383;28;20098;-84
2023/03/02 04:43:14;;;;;;;19.45;12.77;;;-3276.70;79.70;;;;;;5025985;28;20068;-75
2023/03/02 04:45:39;;;;;;;19.70;13.75;;;-3276.70;79.70;;;;;;5027600;28;20041;-77
2023/03/02 04:48:06;;;;;;;20.77;13.35;;;-3276.70;79.80;;;;;;5019957;28;20030;-77
2023/03/02 04:50:32;;;;;;;18.48;12.80;;;-3276.70;79.80;;;;;;5027090;28;20038;-83
2023/03/02 04:52:58;;;;;;;18.88;12.18;;;-3276.70;79.70;;;;;;5011080;28;20014;-84
2023/03/02 04:55:26;;;;;;;20.40;13.13;;;0.00;79.70;;;;;;5020427;28;20050;-77
2023/03/02 04:57:52;;;;;;;21.15;13.65;;;-3276.70;79.70;;;;;;5024523;28;20032;-79
2023/03/02 05:00:19;;;;;;;24.63;13.15;;;0.00;79.70;;;;;;5017297;28;20041;-80
2023/03/02 05:02:46;;;;;;;20.90;13.13;;;-3276.70;79.70;;;;;;5021071;28;20041;-83
2023/03/02 05:05:23;;;;;;;21.88;13.85;;;-3276.70;79.90;;;;;;5007239;28;20034;-85
2023/03/02 05:07:49;;;;;;;21.10;13.63;;;-3276.70;80.00;;;;;;5001070;28;20036;-81
2023/03/02 05:10:16;;;;;;;21.25;13.10;;;-3276.70;80.10;;;;;;5006584;28;20096;-85
2023/03/02 05:12:57;;;;;;;21.60;13.88;;;-3276.70;80.10;;;;;;5009238;28;20037;-84
2023/03/02 05:15:25;;;;;;;19.15;13.13;;;-3276.70;80.20;;;;;;5005964;28;20029;-82
2023/03/02 05:17:51;;;;;;;22.65;14.30;;;-3276.60;80.20;;;;;;5002216;28;20025;-83
2023/03/02 05:20:18;;;;;;;21.80;14.15;;;-3276.70;80.30;;;;;;5001798;28;20104;-85
2023/03/02 05:22:44;;;;;;;19.48;13.75;;;-3276.70;80.30;;;;;;5005515;28;20042;-77
2023/03/02 05:25:10;;;;;;;21.95;14.40;;;-3276.60;80.30;;;;;;5009665;28;20029;-86
2023/03/02 05:27:36;;;;;;;21.95;13.60;;;-3276.60;80.50;;;;;;5006240;28;20038;-85
2023/03/02 05:30:04;;;;;;;23.55;15.75;;;-3276.60;80.60;;;;;;5010404;28;20332;-83
2023/03/02 05:32:30;;;;;;;20.67;14.35;;;-3276.60;80.80;;;;;;4998920;28;20026;-79
2023/03/02 05:34:55;;;;;;;23.38;14.25;;;-3276.60;80.80;;;;;;4996973;28;20056;-82
2023/03/02 05:37:21;;;;;;;21.27;15.63;;;-3276.50;80.80;;;;;;5004354;28;20100;-84
2023/03/02 05:39:46;;;;;;;26.77;15.93;;;-3276.60;80.90;;;;;;5009958;28;20060;-84
2023/03/02 05:42:13;;;;;;;22.63;15.65;;;-3276.60;81.00;;;;;;5001524;28;20033;-81
2023/03/02 05:44:38;;;;;;;24.30;15.40;;;-3276.50;81.10;;;;;;5012489;28;20052;-79
2023/03/02 05:47:04;;;;;;;26.98;15.02;;;-3276.50;81.10;;;;;;5018578;28;20097;-79
2023/03/02 05:49:30;;;;;;;26.30;15.95;;;-3276.50;81.30;;;;;;5010389;28;20037;-82
2023/03/02 05:51:55;;;;;;;24.77;15.40;;;-3276.50;81.70;;;;;;5001091;28;20040;-80
2023/03/02 05:54:21;;;;;;;24.02;15.63;;;-3276.50;81.70;;;;;;5003193;28;20026;-83
2023/03/02 05:56:47;;;;;;;23.20;14.85;;;-3276.50;81.70;;;;;;4999716;28;20042;-81
2023/03/02 05:59:12;;;;;;;26.65;15.60;;;-3276.50;81.70;;;;;;5011960;28;20118;-81
2023/03/02 06:01:38;;;;;;;29.65;16.92;;;-3276.50;81.80;;;;;;5011830;28;20034;-83
2023/03/02 06:04:04;;;;;;;28.45;16.88;;;-3276.50;82.00;;;;;;5008051;28;20122;-83
2023/03/02 06:06:30;;;;;;;26.88;17.20;;;-3276.40;82.10;;;;;;5024848;28;20056;-76
2023/03/02 06:08:56;;;;;;;28.10;17.58;;;-3276.40;82.10;;;;;;5023981;28;20088;-78
2023/03/02 06:11:21;;;;;;;25.63;17.15;;;-3276.40;82.40;;;;;;5021840;28;20022;-77
2023/03/02 06:13:47;;;;;;;28.10;17.42;;;-3276.40;82.40;;;;;;5017101;28;20037;-77
2023/03/02 06:16:13;;;;;;;25.80;16.80;;;-3276.40;82.50;;;;;;5014989;28;20037;-80
2023/03/02 06:18:39;;;;;;;30.20;18.40;;;-3276.40;82.60;;;;;;4996984;28;20088;-81
2023/03/02 06:21:04;;;;;;;32.80;19.83;;;-3276.30;82.70;;;;;;5006104;28;20030;-83
2023/03/02 06:23:30;;;;;;;30.85;19.10;;;-3276.40;82.90;;;;;;5001291;28;20061;-78
2023/03/02 06:25:57;;;;;;;29.73;18.70;;;-3276.40;82.90;;;;;;5005887;28;20030;-82
2023/03/02 06:28:23;;;;;;;34.28;20.98;;;-3276.30;82.90;;;;;;5000855;28;20609;-79
2023/03/02 06:30:51;;;;;;;35.38;22.30;;;-3276.30;83.10;;;;;;5004109;28;20383;-83
2023/03/02 06:33:18;;;;;;;31.25;20.40;;;-3276.40;83.30;;;;;;5002835;28;20026;-84
2023/03/02 06:35:44;;;;;;;33.50;20.48;;;-3276.40;83.20;;;;;;5013197;28;20251;-79
2023/03/02 06:38:10;;;;;;;36.22;23.50;;;-3276.40;83.30;;;;;;5011392;28;20045;-83
2023/03/02 06:40:35;;;;;;;37.55;22.10;;;-3276.30;83.30;;;;;;5002335;28;20038;-82
2023/03/02 06:43:01;;;;;;;35.67;22.92;;;-3276.30;83.40;;;;;;4991221;28;20022;-79
2023/03/02 06:45:28;;;;;;;37.38;24.80;;;-3276.30;83.50;;;;;;4998465;28;20493;-76
2023/03/02 06:47:54;;;;;;;38.85;26.55;;;-3276.40;83.70;;;;;;4993506;28;20042;-77
2023/03/02 06:50:20;;;;;;;40.83;25.88;;;-3276.40;83.90;;;;;;4993695;28;20034;-75
2023/03/02 06:52:46;;;;;;;43.03;25.58;;;-3276.50;83.90;;;;;;4999317;28;20033;-76
2023/03/02 06:55:12;;;;;;;38.78;24.85;;;-3276.60;83.90;;;;;;4998663;28;20618;-76
2023/03/02 06:57:38;;;;;;;44.30;26.88;;;-3276.60;83.80;;;;;;4996133;28;20176;-76
2023/03/02 07:00:16;;;;;;;40.65;25.50;;;-3276.70;83.80;;;;;;4999251;28;20030;-76
2023/03/02 07:02:44;;;;;;;40.63;25.50;;;-3276.70;83.70;;;;;;4995389;28;20034;-76
2023/03/02 07:05:10;;;;;;;43.65;26.27;;;-3276.70;83.70;;;;;;4999478;28;20022;-76
2023/03/02 07:07:36;;;;;;;39.10;26.05;;;-3276.70;83.80;;;;;;5001107;28;20042;-76
2023/03/02 07:10:02;;;;;;;41.05;25.80;;;0.00;83.70;;;;;;4991053;28;20030;-76
2023/03/02 07:12:28;;;;;;;45.63;28.45;;;0.00;83.70;;;;;;4998202;28;20072;-77
2023/03/02 07:14:54;;;;;;;47.17;27.55;;;0.00;83.60;;;;;;5004948;28;20466;-77
2023/03/02 07:17:19;;;;;;;45.35;28.02;;;0.00;83.80;;;;;;5000959;28;20103;-74
2023/03/02 07:19:45;;;;;;;51.75;31.15;;;0.00;83.90;;;;;;4994862;28;20144;-76
2023/03/02 07:22:11;;;;;;;48.35;28.63;;;0.00;84.10;;;;;;4999165;28;20030;-75
2023/03/02 07:24:36;;;;;;;47.33;28.58;;;0.00;84.10;;;;;;5002207;28;20089;-74
2023/03/02 07:27:03;;;;;;;53.40;31.85;;;0.10;84.20;;;;;;5000324;28;20038;-76
2023/03/02 07:29:28;;;;;;;51.00;30.33;;;0.10;84.40;;;;;;5001411;28;20026;-79
2023/03/02 07:31:56;;;;;;;54.70;32.92;;;0.10;84.50;;;;;;5003361;28;20041;-76
2023/03/02 07:34:25;;;;;;;58.38;36.15;;;0.10;84.80;;;;;;4994036;28;20070;-76
2023/03/02 07:36:52;;;;;;;60.97;34.25;;;0.10;84.80;;;;;;4997915;28;20029;-76
2023/03/02 07:39:18;;;;;;;58.65;33.80;;;0.20;84.90;;;;;;5000448;28;20041;-77
2023/03/02 07:41:44;;;;;;;54.58;33.33;;;0.20;84.90;;;;;;4996468;28;20034;-75
2023/03/02 07:44:10;;;;;;;58.50;35.10;;;0.30;84.80;;;;;;4999320;28;20023;-77
2023/03/02 07:46:35;;;;;;;58.63;34.97;;;0.40;84.80;;;;;;4992155;28;20082;-76
2023/03/02 07:49:01;;;;;;;59.13;35.72;;;0.40;85.00;;;;;;5001356;28;20022;-76
2023/03/02 07:51:27;;;;;;;64.00;36.67;;;0.40;85.10;;;;;;4992861;28;20034;-75
2023/03/02 07:53:52;;;;;;;58.00;34.88;;;0.50;85.00;;;;;;4991641;28;20022;-77
2023/03/02 07:56:19;;;;;;;62.17;37.47;;;0.60;84.90;;;;;;4996043;28;20054;-75
2023/03/02 07:58:45;;;;;;;65.90;36.95;;;0.60;84.80;;;;;;4993062;28;20490;-76
2023/03/02 08:01:10;;;;;;;58.72;36.42;;;0.70;84.70;;;;;;5001896;28;20053;-75
2023/03/02 08:03:37;;;;;;;62.30;37.97;;;0.80;84.60;;;;;;4996612;28;20296;-74
2023/03/02 08:06:10;;;;;;;64.05;33.80;;;0.80;84.40;;;;;;5000981;28;20034;-77
2023/03/02 08:08:36;;;;;;;57.72;35.35;;;0.90;84.20;;;;;;4995179;28;20137;-75
2023/03/02 08:11:07;;;;;;;60.00;36.25;;;1.00;83.90;;;;;;4999556;28;20049;-75
2023/03/02 08:13:33;;;;;;;58.25;34.22;;;1.10;83.50;;;;;;5003790;28;20470;-77
2023/03/02 08:16:01;;;;;;;61.20;36.20;;;1.20;82.80;;;;;;5001142;28;20044;-76
2023/03/02 08:18:27;;;;;;;54.60;33.13;;;1.40;82.40;;;;;;4997425;28;20026;-75
2023/03/02 08:20:53;;;;;;;57.95;32.28;;;1.50;81.80;;;;;;4994364;28;20037;-74
2023/03/02 08:23:19;;;;;;;54.00;33.00;;;1.50;81.20;;;;;;4993198;28;20018;-75
2023/03/02 08:25:45;;;;;;;52.92;31.70;;;1.70;81.20;;;;;;4995658;28;20093;-74
2023/03/02 08:28:11;;;;;;;56.05;33.08;;;1.80;80.80;;;;;;5002200;28;20521;-75
2023/03/02 08:30:37;;;;;;;55.35;31.25;;;2.00;80.20;;;;;;5000012;28;20423;-75
2023/03/02 08:33:03;;;;;;;50.97;30.92;;;2.10;79.10;;;;;;4992467;28;20022;-75
2023/03/02 08:35:29;;;;;;;51.03;31.45;;;2.10;78.60;;;;;;4993956;28;20037;-76
2023/03/02 08:37:54;;;;;;;45.92;29.60;;;2.20;77.90;;;;;;4995560;28;20030;-76
2023/03/02 08:40:20;;;;;;;46.00;28.48;;;2.40;77.40;;;;;;4997613;28;20421;-75
2023/03/02 08:42:47;;;;;;;47.78;28.63;;;2.60;77.00;;;;;;4998254;28;20098;-76
2023/03/02 08:45:12;;;;;;;43.50;27.98;;;2.60;75.60;;;;;;5003060;28;20030;-75
2023/03/02 08:47:38;;;;;;;46.00;28.48;;;2.90;75.70;;;;;;4997685;28;20044;-79
2023/03/02 08:50:05;;;;;;;45.08;25.98;;;2.90;74.90;;;;;;5000772;28;20466;-78
2023/03/02 08:52:33;;;;;;;48.03;28.45;;;2.90;74.30;;;;;;5000836;28;20565;-77
2023/03/02 08:54:59;;;;;;;43.47;26.90;;;3.00;73.80;;;;;;5003446;28;20125;-80
2023/03/02 08:57:25;;;;;;;39.67;24.88;;;3.10;72.70;;;;;;4996875;28;20446;-78
2023/03/02 08:59:51;;;;;;;46.45;27.70;;;3.30;72.80;;;;;;5001600;28;20060;-78
2023/03/02 09:02:17;;;;;;;43.75;27.20;;;3.40;71.70;;;;;;4995001;28;20089;-78
2023/03/02 09:04:43;;;;;;;44.80;26.50;;;3.40;71.80;;;;;;5005024;28;20037;-77
2023/03/02 09:07:09;;;;;;;46.20;26.10;;;3.50;71.50;;;;;;4998799;28;20031;-79
2023/03/02 09:09:35;;;;;;;44.15;26.65;;;3.70;71.40;;;;;;5003507;28;20037;-78
2023/03/02 09:12:01;;;;;;;43.42;27.02;;;3.80;70.60;;;;;;4995662;28;20451;-77
2023/03/02 09:14:27;;;;;;;41.45;27.08;;;3.90;70.40;;;;;;5002052;28;20162;-78
2023/03/02 09:16:53;;;;;;;43.45;25.80;;;4.10;70.10;;;;;;4999582;28;20030;-74
2023/03/02 09:19:19;;;;;;;39.67;25.02;;;4.10;68.90;;;;;;4996302;28;20073;-77
2023/03/02 09:21:45;;;;;;;42.10;26.02;;;3.90;69.50;;;;;;4991892;28;20064;-76
2023/03/02 09:24:11;;;;;;;46.30;27.50;;;3.80;69.50;;;;;;5002970;28;20436;-79
2023/03/02 09:26:37;;;;;;;42.72;27.55;;;4.00;70.20;;;;;;4997621;28;20038;-77
2023/03/02 09:29:05;;;;;;;48.05;27.52;;;4.10;69.40;;;;;;5002111;28;20518;-78
2023/03/02 09:31:32;;;;;;;45.92;27.40;;;4.30;68.70;;;;;;4997691;28;20031;-79
2023/03/02 09:33:57;;;;;;;41.25;26.98;;;4.50;68.60;;;;;;4998463;28;20038;-78
2023/03/02 09:36:25;;;;;;;40.85;26.73;;;4.30;67.60;;;;;;5000229;28;20030;-76
2023/03/02 09:38:51;;;;;;;42.45;25.98;;;4.20;68.70;;;;;;4997568;28;20427;-75
2023/03/02 09:41:20;;;;;;;43.70;26.83;;;4.30;68.70;;;;;;5013052;28;20121;-77
2023/03/02 09:44:11;;;;;;;44.33;28.75;;;4.30;68.10;;;;;;4996546;28;20029;-77
2023/03/02 09:46:47;;;;;;;42.53;26.23;;;4.20;68.80;;;;;;4996639;28;20041;-77
2023/03/02 09:49:32;;;;;;;46.65;26.55;;;4.40;67.40;;;;;;4994567;28;20503;-78
2023/03/02 09:52:01;;;;;;;;;;;4.60;68.10;;;;;;5000438;28;20060;-77
2023/03/02 09:54:28;;;;;;;40.58;25.55;;;4.80;67.40;;;;;;5001441;28;20122;-78
2023/03/02 09:56:56;;;;;;;38.55;24.88;;;4.90;67.10;;;;;;4997521;28;20129;-77
2023/03/02 09:59:36;;;;;;;41.13;26.70;;;5.00;65.50;;;;;;5002453;28;20103;-76
2023/03/02 10:02:11;;;;;;;42.95;26.98;;;5.00;66.40;;;;;;4997575;28;20567;-77
2023/03/02 10:04:43;;;;;;;42.15;25.92;;;5.30;66.10;;;;;;5002489;28;20026;-76
2023/03/02 10:07:15;;;;;;;43.70;26.55;;;5.30;65.10;;;;;;5004982;28;20100;-76
2023/03/02 10:09:41;;;;;;;42.72;26.77;;;5.60;65.00;;;;;;5016448;28;20388;-77
2023/03/02 10:12:29;;;;;;;44.40;28.25;;;5.80;64.50;;;;;;4995956;28;20041;-77
2023/03/02 10:15:15;;;;;;;40.65;25.48;;;5.80;64.70;;;;;;4997197;28;20034;-77
2023/03/02 10:17:53;;;;;;;38.58;25.33;;;5.60;64.20;;;;;;4995077;28;20037;-78
2023/03/02 10:20:56;;;;;;;40.80;24.48;;;5.50;64.20;;;;;;4997309;28;20034;-76
2023/03/02 10:23:37;;;;;;;39.72;26.13;;;5.70;63.90;;;;;;4987762;28;20034;-76
2023/03/02 10:26:33;;;;;;;39.42;26.23;;;5.90;64.40;;;;;;4996767;28;20061;-77
2023/03/02 10:29:14;;;;;;;44.15;27.33;;;5.80;63.00;;;;;;4999992;28;20041;-76
2023/03/02 10:31:40;;;;;;;43.00;25.67;;;6.00;63.30;;;;;;4998361;28;20108;-76
2023/03/02 10:34:13;;;;;;;40.67;24.90;;;5.90;62.30;;;;;;4995762;28;20029;-76
2023/03/02 10:36:42;;;;;;;40.67;26.50;;;6.10;62.60;;;;;;4996603;28;20042;-79
2023/03/02 10:39:16;;;;;;;42.50;26.33;;;6.00;62.20;;;;;;4998729;28;20034;-77
2023/03/02 10:41:57;;;;;;;42.90;26.83;;;5.70;63.50;;;;;;4997533;28;20068;-78
2023/03/02 10:44:41;;;;;;;41.03;24.95;;;5.80;63.60;;;;;;4999335;28;20036;-78
2023/03/02 10:47:07;;;;;;;38.42;25.35;;;6.20;62.10;;;;;;4998050;28;20390;-79
2023/03/02 10:49:41;;;;;;;44.80;28.67;;;5.80;63.20;;;;;;4993141;28;20180;-77
2023/03/02 10:52:15;;;;;;;49.37;31.03;;;6.00;66.00;;;;;;4996944;28;20053;-79
2023/03/02 10:54:42;;;;;;;46.53;28.90;;;6.20;66.50;;;;;;5000139;28;20027;-77
2023/03/02 10:57:33;;;;;;;44.80;28.15;;;6.20;65.10;;;;;;4997737;28;20525;-79
2023/03/02 11:00:23;;;;;;;46.30;29.65;;;6.10;64.80;;;;;;5003599;28;20034;-80
2023/03/02 11:02:59;;;;;;;45.83;29.10;;;6.60;65.00;;;;;;4997387;28;20061;-79
2023/03/02 11:05:28;;;;;;;49.70;30.58;;;6.70;64.10;;;;;;4994743;28;20080;-78
2023/03/02 11:07:55;;;;;;;44.90;29.27;;;6.60;64.20;;;;;;4994509;28;20046;-77
2023/03/02 11:10:25;;;;;;;47.17;29.13;;;6.80;64.70;;;;;;4990005;28;20058;-77
2023/03/02 11:12:52;;;;;;;47.97;30.23;;;6.90;63.80;;;;;;5002373;28;20367;-80
2023/03/02 11:15:55;;;;;;;46.03;29.75;;;6.80;63.00;;;;;;4989701;28;20101;-79
2023/03/02 11:18:29;;;;;;;44.78;27.77;;;6.70;64.30;;;;;;5001360;28;20489;-78
2023/03/02 11:21:02;;;;;;;44.63;26.77;;;6.70;63.80;;;;;;4991717;28;20053;-78
2023/03/02 11:23:49;;;;;;;47.00;29.17;;;6.90;64.50;;;;;;4998584;28;20026;-78
2023/03/02 11:26:35;;;;;;;44.95;28.50;;;6.90;63.50;;;;;;4995507;28;20048;-78
2023/03/02 11:29:12;;;;;;;42.60;27.98;;;6.80;64.00;;;;;;5000959;28;20038;-79
2023/03/02 11:31:47;;;;;;;47.83;29.80;;;6.90;64.40;;;;;;4997737;28;20125;-79
2023/03/02 11:34:35;;;;;;;49.30;30.40;;;6.90;63.70;;;;;;4990584;28;20918;-78
2023/03/02 11:37:17;;;;;;;46.85;28.70;;;7.00;63.00;;;;;;5000036;28;20082;-77
2023/03/02 11:39:48;;;;;;;44.72;28.10;;;7.10;62.30;;;;;;4990084;28;20049;-77
2023/03/02 11:42:25;;;;;;;42.13;27.30;;;7.10;63.30;;;;;;4998537;28;20108;-78
2023/03/02 11:44:51;;;;;;;48.75;30.42;;;7.20;62.80;;;;;;4997271;28;20565;-76
2023/03/02 11:47:19;;;;;;;46.95;29.92;;;7.20;63.40;;;;;;4993524;28;20034;-79
2023/03/02 11:49:58;;;;;;;43.10;29.33;;;7.10;63.00;;;;;;5012261;28;20034;-77
2023/03/02 11:52:27;;;;;;;45.65;28.30;;;7.20;62.70;;;;;;4997690;28;20129;-79
2023/03/02 11:55:04;;;;;;;42.85;28.63;;;7.20;61.90;;;;;;4998450;28;20023;-79
2023/03/02 11:57:38;;;;;;;40.75;27.58;;;7.40;61.90;;;;;;4998941;28;20474;-77
2023/03/02 12:00:14;;;;;;;40.75;27.52;;;7.60;61.50;;;;;;5001255;28;20110;-79
2023/03/02 12:02:40;;;;;;;41.67;27.38;;;7.60;61.00;;;;;;4999228;28;20102;-77
2023/03/02 12:05:24;;;;;;;42.83;26.02;;;7.60;61.40;;;;;;4998072;28;20604;-77
2023/03/02 12:07:58;;;;;;;39.33;27.35;;;7.60;59.50;;;;;;4997371;28;20042;-78
2023/03/02 12:10:33;;;;;;;42.00;26.63;;;7.60;61.00;;;;;;5004686;28;20061;-79
2023/03/02 12:13:22;;;;;;;42.00;27.13;;;7.70;60.60;;;;;;4995450;28;20069;-78
2023/03/02 12:15:49;;;;;;;42.88;27.90;;;7.90;59.40;;;;;;5002573;28;20088;-78
2023/03/02 12:18:28;;;;;;;41.13;26.35;;;8.00;59.90;;;;;;5006641;28;20457;-79
2023/03/02 12:21:04;;;;;;;37.75;25.48;;;8.00;59.40;;;;;;4999791;28;20078;-78
2023/03/02 12:23:33;;;;;;;39.05;24.98;;;8.10;58.20;;;;;;5000010;28;20068;-79
2023/03/02 12:26:22;;;;;;;36.40;24.73;;;8.00;59.20;;;;;;5001085;28;20030;-78
2023/03/02 12:29:08;;;;;;;40.13;24.80;;;8.20;59.60;;;;;;4998510;28;20030;-78
2023/03/02 12:31:49;;;;;;;39.33;24.40;;;8.10;59.20;;;;;;5004406;28;20041;-78
2023/03/02 12:34:37;;;;;;;35.90;23.67;;;8.10;59.00;;;;;;5000428;28;20064;-78
2023/03/02 12:37:15;;;;;;;39.30;25.10;;;8.10;58.50;;;;;;5005682;28;20457;-78
2023/03/02 12:39:59;;;;;;;38.55;24.00;;;7.90;59.60;;;;;;4994319;28;20038;-77